X  Schlie├čen METAR Luftfahrt Wetterdaten     EDDH Hamburg Helmut Schmidt Airport
Temperatur
15°C Temperatur
8°C Taupunkt
63% Feuchtigkeit



Wind
3 M/S
7 MPS
11 KM/S
6 KTS



190°
S
Aktuelle Wetterlage

Klar Klar
Luftdruck 1005.76 (hPa) - 29.7 (inHg)
Sichtweite 6 (Meile) - 9.7 (Km)
Flughafen
Flughafen Code EDDH

Position : Hamburg Helmut Schmidt Airport
Entfernung: 11 (Km)

Metar:
EDDH 151950Z AUTO 19006KT CAVOK 15/08 Q1006 NOSIG

Zeit: 15-06-2024 21:50 CEST